aviador You're here:

KHSA Decoded Metar

BAY ST LOUIS in MS, USA
Report Time2018-01-17 17:50:00
UTC Time2018-01-17 18:14:15
Flight Rules vfr VFR
Wind010° at 20 Gusting to 25 kt
W.Decomp.*RWY 36: 19.8 kt HW 3.1 kt RCW
W.Rank010° ranks 8
Current wind is above 010° avg. (7.4)
Visibility9999 m
Phenomena:N/A
Clouds:N/A
Expected CloudBase > 4,000 ft AGL from Temp-Dew spread
CeilingNone
Temp-2°C (ISA -17)
Dew Point-12°C (47% RH)
AAT-12.4°C
QNH1037 hPa
Density Alt-2,838 ft
Elevation23 ft
Report Wrong Elevation
Raw Report
KHSA 171750Z 01020G25KT 10SM CLR M02/M12 A3062=

Extra information for KHSA:More info

Metar Taf Metar & Taf Last 4 Metars F.Rules Stats Wind Profile Meteogram Temp Stats Airport Information Weather charts Add Link Nearby VenuesMetar ALERT Operation Metar Decoded Social comments

AIRNAV info for KHSA